Terminal Aerodrome Forecast
Issued by NWS

Home | Current Version | Previous Version | Text Only | Print | Product List | Glossary On
Versions: 1 2 3 4 5 6 7 8 9 10 11 12
000
FTUS44 KEPZ 261700 RRA
TAFTCS
TAF
KTCS 261756Z 2618/2718 04011KT P6SM SCT140 BKN250
     FM270000 34006KT P6SM VCSH SCT050 BKN100 OVC200
      TEMPO 2709/2713 6SM -SHRA BKN040 OVC100=

USA.gov is the U.S. government's official web portal to all federal, state and local government web resources and services.